createdAt,value
2017-01-26T00:00:34.173Z,0
2017-01-26T00:01:44.870Z,0
2017-01-26T00:02:55.589Z,0
2017-01-26T00:04:06.332Z,0
2017-01-26T00:05:17.032Z,0
2017-01-26T00:06:27.769Z,0
2017-01-26T00:07:38.748Z,0
2017-01-26T00:08:49.470Z,0
2017-01-26T00:10:00.207Z,0
2017-01-26T00:11:10.918Z,0
2017-01-26T00:12:21.633Z,0
2017-01-26T00:13:32.394Z,0
2017-01-26T00:14:43.125Z,0
2017-01-26T00:15:53.848Z,0
2017-01-26T00:17:04.554Z,0
2017-01-26T00:18:15.268Z,0
2017-01-26T00:19:25.985Z,0
2017-01-26T00:20:36.701Z,0
2017-01-26T00:21:47.406Z,0
2017-01-26T00:22:58.135Z,0
2017-01-26T00:24:08.860Z,0
2017-01-26T00:25:19.589Z,0
2017-01-26T00:26:30.325Z,0
2017-01-26T00:27:41.056Z,0
2017-01-26T00:28:51.772Z,0
2017-01-26T00:30:02.487Z,0
2017-01-26T00:31:13.218Z,0
2017-01-26T00:32:23.915Z,0
2017-01-26T00:33:34.662Z,0
2017-01-26T00:34:45.382Z,0
2017-01-26T00:35:56.119Z,0
2017-01-26T00:37:07.078Z,0
2017-01-26T00:38:17.786Z,0
2017-01-26T00:39:28.557Z,0
2017-01-26T00:40:39.300Z,0
2017-01-26T00:41:50.074Z,0
2017-01-26T00:43:00.781Z,0
2017-01-26T00:44:11.515Z,0
2017-01-26T00:45:22.238Z,0
2017-01-26T00:46:32.984Z,0
2017-01-26T00:47:43.705Z,0
2017-01-26T00:48:54.685Z,0
2017-01-26T00:50:05.444Z,0
2017-01-26T00:51:16.178Z,0
2017-01-26T00:52:26.910Z,0
2017-01-26T00:53:37.635Z,0
2017-01-26T00:54:48.374Z,0
2017-01-26T00:55:59.124Z,0
2017-01-26T00:57:09.873Z,0
2017-01-26T00:58:20.969Z,0
2017-01-26T00:59:31.673Z,0
2017-01-26T01:00:42.394Z,0
2017-01-26T01:01:53.154Z,0
2017-01-26T01:03:03.900Z,0
2017-01-26T01:04:15.032Z,0
2017-01-26T01:05:25.756Z,0
2017-01-26T01:06:36.470Z,0
2017-01-26T01:07:47.201Z,0
2017-01-26T01:08:57.933Z,0
2017-01-26T01:10:08.655Z,0
2017-01-26T01:11:19.356Z,0
2017-01-26T01:12:30.058Z,0
2017-01-26T01:13:40.793Z,0
2017-01-26T01:14:51.518Z,0
2017-01-26T01:16:02.219Z,0
2017-01-26T01:17:12.953Z,0
2017-01-26T01:18:23.659Z,0
2017-01-26T01:19:34.397Z,0
2017-01-26T01:20:45.114Z,0
2017-01-26T01:21:55.824Z,0
2017-01-26T01:23:06.558Z,0
2017-01-26T01:24:17.532Z,0
2017-01-26T01:25:28.238Z,0
2017-01-26T01:26:38.999Z,0
2017-01-26T01:27:49.742Z,0
2017-01-26T01:29:00.454Z,0
2017-01-26T01:30:11.148Z,0
2017-01-26T01:31:21.886Z,0
2017-01-26T01:32:32.628Z,0
2017-01-26T01:33:43.328Z,0
2017-01-26T01:34:54.066Z,0
2017-01-26T01:36:04.800Z,0
2017-01-26T01:37:15.526Z,0
2017-01-26T01:38:26.259Z,0
2017-01-26T01:39:36.988Z,0
2017-01-26T01:40:47.748Z,0
2017-01-26T01:41:58.454Z,0
2017-01-26T01:43:09.575Z,0
2017-01-26T01:44:20.270Z,0
2017-01-26T01:45:30.992Z,0
2017-01-26T01:46:41.731Z,0
2017-01-26T01:47:52.701Z,0
2017-01-26T01:49:03.461Z,0
2017-01-26T01:50:14.177Z,0
2017-01-26T01:51:24.914Z,0
2017-01-26T01:52:35.662Z,0
2017-01-26T01:53:46.360Z,0
2017-01-26T01:54:57.087Z,0
2017-01-26T01:56:07.820Z,0
2017-01-26T01:57:18.527Z,0
2017-01-26T01:58:29.246Z,0
2017-01-26T01:59:39.966Z,0
2017-01-26T02:00:50.682Z,0
2017-01-26T02:02:01.393Z,0
2017-01-26T02:03:12.154Z,0
2017-01-26T02:04:22.868Z,0
2017-01-26T02:05:33.866Z,0
2017-01-26T02:06:44.613Z,0
2017-01-26T02:07:55.340Z,0
2017-01-26T02:09:06.486Z,0
2017-01-26T02:10:17.225Z,0
2017-01-26T02:11:28.000Z,0
2017-01-26T02:12:38.697Z,0
2017-01-26T02:13:49.427Z,0
2017-01-26T02:15:00.159Z,0
2017-01-26T02:16:10.914Z,0
2017-01-26T02:17:21.606Z,0
2017-01-26T02:18:32.308Z,0
2017-01-26T02:19:43.009Z,0
2017-01-26T02:20:53.746Z,0
2017-01-26T02:22:04.468Z,0
2017-01-26T02:23:15.427Z,0
2017-01-26T02:24:26.139Z,0
2017-01-26T02:25:36.863Z,0
2017-01-26T02:26:47.551Z,0
2017-01-26T02:27:58.249Z,0
2017-01-26T02:29:08.991Z,0
2017-01-26T02:30:19.741Z,0
2017-01-26T02:31:30.461Z,0
2017-01-26T02:32:41.196Z,0
2017-01-26T02:33:51.920Z,0
2017-01-26T02:35:02.623Z,0
2017-01-26T02:36:13.364Z,0
2017-01-26T02:37:24.106Z,0
2017-01-26T02:38:34.809Z,0
2017-01-26T02:39:45.532Z,0
2017-01-26T02:40:56.254Z,0
2017-01-26T02:42:06.998Z,0
2017-01-26T02:43:17.693Z,0
2017-01-26T02:44:28.415Z,0
2017-01-26T02:45:39.152Z,0
2017-01-26T02:46:50.151Z,0
2017-01-26T02:48:00.879Z,0
2017-01-26T02:49:11.590Z,0
2017-01-26T02:50:22.315Z,0
2017-01-26T02:51:33.046Z,0
2017-01-26T02:52:43.781Z,0
2017-01-26T02:53:54.491Z,0
2017-01-26T02:55:05.280Z,0
2017-01-26T02:56:16.003Z,0
2017-01-26T02:57:26.738Z,0
2017-01-26T02:58:37.496Z,0
2017-01-26T02:59:48.232Z,0
2017-01-26T03:00:58.982Z,0
2017-01-26T03:02:09.724Z,0
2017-01-26T03:03:20.477Z,0
2017-01-26T03:04:31.191Z,0
2017-01-26T03:05:41.920Z,0
2017-01-26T03:06:52.636Z,0
2017-01-26T03:08:03.382Z,0
2017-01-26T03:09:14.113Z,0
2017-01-26T03:10:24.849Z,0
2017-01-26T03:11:35.575Z,0
2017-01-26T03:12:46.321Z,0
2017-01-26T03:13:57.054Z,0
2017-01-26T03:15:07.764Z,0
2017-01-26T03:16:18.496Z,0
2017-01-26T03:17:29.246Z,0
2017-01-26T03:18:40.002Z,0
2017-01-26T03:19:50.746Z,0
2017-01-26T03:21:01.483Z,0
2017-01-26T03:22:12.455Z,0
2017-01-26T03:23:23.162Z,0
2017-01-26T03:24:33.886Z,0
2017-01-26T03:25:44.598Z,0
2017-01-26T03:26:55.321Z,0
2017-01-26T03:28:06.032Z,0
2017-01-26T03:29:16.788Z,0
2017-01-26T03:30:27.488Z,0
2017-01-26T03:31:38.581Z,0
2017-01-26T03:32:49.281Z,0
2017-01-26T03:34:00.023Z,0
2017-01-26T03:35:10.785Z,0
2017-01-26T03:36:21.889Z,0
2017-01-26T03:37:32.602Z,0
2017-01-26T03:38:43.333Z,0
2017-01-26T03:39:54.026Z,0
2017-01-26T03:41:04.766Z,0
2017-01-26T03:42:15.491Z,0
2017-01-26T03:43:26.203Z,0
2017-01-26T03:44:36.933Z,0
2017-01-26T03:45:47.921Z,0
2017-01-26T03:46:58.652Z,0
2017-01-26T03:48:09.366Z,0
2017-01-26T03:49:20.112Z,0
2017-01-26T03:50:30.830Z,0
2017-01-26T03:51:41.576Z,0
2017-01-26T03:52:52.280Z,0
2017-01-26T03:54:02.979Z,0
2017-01-26T03:55:13.723Z,0
2017-01-26T03:56:24.463Z,0
2017-01-26T03:57:35.189Z,0
2017-01-26T03:58:45.927Z,0
2017-01-26T03:59:56.673Z,0
2017-01-26T04:01:07.808Z,0
2017-01-26T04:02:18.565Z,0
2017-01-26T04:03:29.270Z,0
2017-01-26T04:04:39.991Z,0
2017-01-26T04:05:50.711Z,0
2017-01-26T04:07:01.435Z,0
2017-01-26T04:08:12.152Z,0
2017-01-26T04:09:23.144Z,0
2017-01-26T04:10:33.863Z,0
2017-01-26T04:11:44.564Z,0
2017-01-26T04:12:55.289Z,0
2017-01-26T04:14:06.006Z,0
2017-01-26T04:15:16.711Z,0
2017-01-26T04:16:27.442Z,0
2017-01-26T04:17:38.162Z,0
2017-01-26T04:18:48.890Z,0
2017-01-26T04:19:59.591Z,0
2017-01-26T04:21:10.324Z,0
2017-01-26T04:22:21.046Z,0
2017-01-26T04:23:31.776Z,0
2017-01-26T04:24:42.515Z,0
2017-01-26T04:25:53.245Z,0
2017-01-26T04:27:04.240Z,0
2017-01-26T04:28:14.979Z,0
2017-01-26T04:29:25.705Z,0
2017-01-26T04:30:36.442Z,0
2017-01-26T04:31:47.171Z,0
2017-01-26T04:32:57.934Z,0
2017-01-26T04:34:08.642Z,0
2017-01-26T04:35:19.381Z,0
2017-01-26T04:36:30.111Z,0
2017-01-26T04:37:40.826Z,0
2017-01-26T04:38:51.526Z,0
2017-01-26T04:40:02.261Z,0
2017-01-26T04:41:12.974Z,0
2017-01-26T04:42:23.660Z,0
2017-01-26T04:43:34.384Z,0
2017-01-26T04:44:45.150Z,0
2017-01-26T04:45:55.853Z,0
2017-01-26T04:47:06.569Z,0
2017-01-26T04:48:17.286Z,0
2017-01-26T04:49:28.014Z,0
2017-01-26T04:50:38.736Z,0
2017-01-26T04:51:49.474Z,0
2017-01-26T04:53:00.203Z,0
2017-01-26T04:54:11.313Z,0
2017-01-26T04:55:22.059Z,0
2017-01-26T04:56:33.080Z,0
2017-01-26T04:57:43.816Z,0
2017-01-26T04:58:54.529Z,0
2017-01-26T05:00:05.229Z,0
2017-01-26T05:01:15.967Z,0
2017-01-26T05:02:26.698Z,0
2017-01-26T05:03:37.410Z,0
2017-01-26T05:04:48.109Z,0
2017-01-26T05:05:58.840Z,0
2017-01-26T05:07:09.583Z,0
2017-01-26T05:08:20.304Z,0
2017-01-26T05:09:31.021Z,0
2017-01-26T05:10:41.740Z,0
2017-01-26T05:11:52.454Z,0
2017-01-26T05:13:03.188Z,0
2017-01-26T05:14:13.899Z,0
2017-01-26T05:15:24.645Z,0
2017-01-26T05:16:35.348Z,0
2017-01-26T05:17:46.070Z,0
2017-01-26T05:18:56.793Z,0
2017-01-26T05:20:07.512Z,0
2017-01-26T05:21:18.208Z,0
2017-01-26T05:22:28.943Z,0
2017-01-26T05:23:39.665Z,0
2017-01-26T05:24:50.410Z,0
2017-01-26T05:26:01.144Z,0
2017-01-26T05:27:11.841Z,0
2017-01-26T05:28:22.572Z,0
2017-01-26T05:29:33.301Z,0
2017-01-26T05:30:44.027Z,0
2017-01-26T05:31:55.386Z,0
2017-01-26T05:33:06.099Z,0
2017-01-26T05:34:16.812Z,0
2017-01-26T05:35:27.556Z,0
2017-01-26T05:36:38.253Z,0
2017-01-26T05:37:49.202Z,0
2017-01-26T05:38:59.894Z,0
2017-01-26T05:40:10.636Z,0
2017-01-26T05:41:21.364Z,0
2017-01-26T05:42:32.068Z,0
2017-01-26T05:43:42.803Z,0
2017-01-26T05:44:53.529Z,0
2017-01-26T05:46:04.268Z,0
2017-01-26T05:47:15.019Z,0
2017-01-26T05:48:25.717Z,0
2017-01-26T05:49:36.455Z,0
2017-01-26T05:50:47.181Z,0
2017-01-26T05:51:57.904Z,0
2017-01-26T05:53:08.605Z,0
2017-01-26T05:54:19.353Z,0
2017-01-26T05:55:30.069Z,0
2017-01-26T05:56:40.786Z,0
2017-01-26T05:57:51.508Z,0
2017-01-26T05:59:02.282Z,0
2017-01-26T06:00:12.990Z,0
2017-01-26T06:01:23.716Z,0
2017-01-26T06:02:34.458Z,0
2017-01-26T06:03:45.189Z,0
2017-01-26T06:04:55.930Z,0
2017-01-26T06:06:06.657Z,0
2017-01-26T06:07:17.643Z,0
2017-01-26T06:08:28.393Z,0
2017-01-26T06:09:39.134Z,0
2017-01-26T06:10:49.862Z,0
2017-01-26T06:12:00.604Z,0
2017-01-26T06:13:11.306Z,0
2017-01-26T06:14:22.031Z,0
2017-01-26T06:15:32.753Z,0
2017-01-26T06:16:43.492Z,0
2017-01-26T06:17:54.224Z,0
2017-01-26T06:19:04.937Z,0
2017-01-26T06:20:15.672Z,0
2017-01-26T06:21:26.395Z,0
2017-01-26T06:22:37.102Z,0
2017-01-26T06:23:47.838Z,0
2017-01-26T06:24:58.593Z,0
2017-01-26T06:26:09.332Z,0
2017-01-26T06:27:20.049Z,0
2017-01-26T06:28:30.753Z,0
2017-01-26T06:29:41.474Z,0
2017-01-26T06:30:52.427Z,0
2017-01-26T06:32:03.145Z,0
2017-01-26T06:33:13.908Z,0
2017-01-26T06:34:24.638Z,0
2017-01-26T06:35:35.354Z,0
2017-01-26T06:36:46.096Z,0
2017-01-26T06:37:56.814Z,0
2017-01-26T06:39:07.518Z,0
2017-01-26T06:40:18.259Z,0
2017-01-26T06:41:28.966Z,0
2017-01-26T06:42:39.680Z,0
2017-01-26T06:43:50.779Z,0
2017-01-26T06:45:01.500Z,5
2017-01-26T06:46:12.222Z,5
2017-01-26T06:47:22.947Z,5
2017-01-26T06:48:33.916Z,5
2017-01-26T06:49:44.653Z,5
2017-01-26T06:50:55.356Z,5
2017-01-26T06:52:06.094Z,10
2017-01-26T06:53:16.824Z,10
2017-01-26T06:54:27.546Z,10
2017-01-26T06:55:38.236Z,10
2017-01-26T06:56:48.955Z,15
2017-01-26T06:57:59.687Z,15
2017-01-26T06:59:10.800Z,15
2017-01-26T07:00:21.548Z,20
2017-01-26T07:01:32.269Z,20
2017-01-26T07:02:42.965Z,20
2017-01-26T07:03:53.666Z,20
2017-01-26T07:05:04.359Z,25
2017-01-26T07:06:15.076Z,25
2017-01-26T07:07:25.793Z,25
2017-01-26T07:08:36.518Z,30
2017-01-26T07:09:47.243Z,30
2017-01-26T07:10:57.941Z,35
2017-01-26T07:12:08.673Z,35
2017-01-26T07:13:19.409Z,40
2017-01-26T07:14:30.143Z,45
2017-01-26T07:15:40.873Z,45
2017-01-26T07:16:51.595Z,50
2017-01-26T07:18:02.303Z,55
2017-01-26T07:19:13.384Z,60
2017-01-26T07:20:24.124Z,65
2017-01-26T07:21:34.852Z,70
2017-01-26T07:22:45.575Z,75
2017-01-26T07:23:56.312Z,80
2017-01-26T07:25:07.054Z,85
2017-01-26T07:26:17.779Z,85
2017-01-26T07:27:28.496Z,90
2017-01-26T07:28:39.244Z,95
2017-01-26T07:29:50.377Z,95
2017-01-26T07:31:01.101Z,100
2017-01-26T07:32:11.818Z,100
2017-01-26T07:33:22.518Z,105
2017-01-26T07:34:33.230Z,110
2017-01-26T07:35:43.930Z,110
2017-01-26T07:36:54.663Z,115
2017-01-26T07:38:05.388Z,115
2017-01-26T07:39:16.093Z,120
2017-01-26T07:40:26.795Z,120
2017-01-26T07:41:37.523Z,125
2017-01-26T07:42:48.274Z,125
2017-01-26T07:43:59.016Z,130
2017-01-26T07:45:09.764Z,130
2017-01-26T07:46:20.868Z,135
2017-01-26T07:47:31.812Z,140
2017-01-26T07:48:42.538Z,140
2017-01-26T07:49:53.233Z,145
2017-01-26T07:51:03.949Z,145
2017-01-26T07:52:14.666Z,150
2017-01-26T07:53:25.396Z,155
2017-01-26T07:54:36.116Z,155
2017-01-26T07:55:46.850Z,155
2017-01-26T07:56:57.588Z,160
2017-01-26T07:58:08.304Z,160
2017-01-26T07:59:19.277Z,160
2017-01-26T08:00:30.008Z,165
2017-01-26T08:01:40.719Z,165
2017-01-26T08:02:51.459Z,170
2017-01-26T08:04:02.202Z,170
2017-01-26T08:05:12.904Z,170
2017-01-26T08:06:23.639Z,175
2017-01-26T08:07:34.347Z,175
2017-01-26T08:08:45.068Z,180
2017-01-26T08:09:55.790Z,185
2017-01-26T08:11:06.510Z,190
2017-01-26T08:12:17.248Z,195
2017-01-26T08:13:27.975Z,195
2017-01-26T08:14:38.697Z,200
2017-01-26T08:15:49.435Z,205
2017-01-26T08:17:00.159Z,210
2017-01-26T08:18:10.863Z,210
2017-01-26T08:19:21.597Z,220
2017-01-26T08:20:32.307Z,220
2017-01-26T08:21:43.042Z,230
2017-01-26T08:22:53.759Z,230
2017-01-26T08:24:04.467Z,230
2017-01-26T08:25:15.183Z,250
2017-01-26T08:26:25.897Z,240
2017-01-26T08:27:36.625Z,225
2017-01-26T08:28:47.339Z,270
2017-01-26T08:29:58.099Z,295
2017-01-26T08:31:08.818Z,255
2017-01-26T08:32:19.552Z,255
2017-01-26T08:33:30.300Z,290
2017-01-26T08:34:41.055Z,300
2017-01-26T08:35:51.774Z,280
2017-01-26T08:37:02.510Z,270
2017-01-26T08:38:13.246Z,260
2017-01-26T08:39:23.989Z,270
2017-01-26T08:40:34.735Z,300
2017-01-26T08:41:45.431Z,260
2017-01-26T08:42:56.140Z,255
2017-01-26T08:44:06.872Z,270
2017-01-26T08:45:17.596Z,305
2017-01-26T08:46:28.334Z,285
2017-01-26T08:47:39.074Z,300
2017-01-26T08:48:49.803Z,275
2017-01-26T08:50:00.529Z,335
2017-01-26T08:51:11.273Z,275
2017-01-26T08:52:22.012Z,285
2017-01-26T08:53:32.757Z,290
2017-01-26T08:54:43.459Z,300
2017-01-26T08:55:54.575Z,315
2017-01-26T08:57:05.307Z,285
2017-01-26T08:58:16.094Z,275
2017-01-26T08:59:26.820Z,270
2017-01-26T09:00:37.540Z,290
2017-01-26T09:01:48.238Z,285
2017-01-26T09:02:58.958Z,320
2017-01-26T09:04:09.692Z,350
2017-01-26T09:05:20.397Z,335
2017-01-26T09:06:31.093Z,365
2017-01-26T09:07:41.814Z,315
2017-01-26T09:08:52.554Z,325
2017-01-26T09:10:03.264Z,455
2017-01-26T09:11:14.402Z,420
2017-01-26T09:12:25.122Z,395
2017-01-26T09:13:35.846Z,345
2017-01-26T09:14:46.557Z,340
2017-01-26T09:15:57.283Z,335
2017-01-26T09:17:07.987Z,345
2017-01-26T09:18:18.706Z,355
2017-01-26T09:19:29.424Z,375
2017-01-26T09:20:40.166Z,400
2017-01-26T09:21:50.918Z,340
2017-01-26T09:23:01.616Z,295
2017-01-26T09:24:12.338Z,315
2017-01-26T09:25:23.075Z,325
2017-01-26T09:26:33.817Z,355
2017-01-26T09:27:44.548Z,285
2017-01-26T09:28:55.270Z,310
2017-01-26T09:30:05.991Z,315
2017-01-26T09:31:16.692Z,350
2017-01-26T09:32:27.426Z,255
2017-01-26T09:33:38.157Z,430
2017-01-26T09:34:48.876Z,255
2017-01-26T09:35:59.617Z,355
2017-01-26T09:37:10.335Z,260
2017-01-26T09:38:21.063Z,265
2017-01-26T09:39:32.039Z,250
2017-01-26T09:40:42.768Z,250
2017-01-26T09:41:53.522Z,250
2017-01-26T09:43:04.253Z,290
2017-01-26T09:44:15.008Z,250
2017-01-26T09:45:25.778Z,255
2017-01-26T09:46:36.510Z,245
2017-01-26T09:47:47.231Z,255
2017-01-26T09:48:57.969Z,250
2017-01-26T09:50:08.711Z,245
2017-01-26T09:51:19.445Z,245
2017-01-26T09:52:30.164Z,250
2017-01-26T09:53:40.887Z,260
2017-01-26T09:54:51.621Z,255
2017-01-26T09:56:02.745Z,255
2017-01-26T09:57:13.719Z,260
2017-01-26T09:58:24.474Z,260
2017-01-26T09:59:35.188Z,265
2017-01-26T10:00:45.949Z,260
2017-01-26T10:01:56.664Z,265
2017-01-26T10:03:07.400Z,265
2017-01-26T10:04:18.147Z,270
2017-01-26T10:05:28.888Z,265
2017-01-26T10:06:39.617Z,265
2017-01-26T10:07:50.354Z,260
2017-01-26T10:09:01.107Z,260
2017-01-26T10:10:11.817Z,260
2017-01-26T10:11:22.524Z,265
2017-01-26T10:12:33.242Z,260
2017-01-26T10:13:43.938Z,260
2017-01-26T10:14:54.659Z,265
2017-01-26T10:16:05.376Z,265
2017-01-26T10:17:16.500Z,270
2017-01-26T10:18:27.630Z,265
2017-01-26T10:19:38.363Z,270
2017-01-26T10:20:49.069Z,265
2017-01-26T10:21:59.788Z,295
2017-01-26T10:23:10.513Z,345
2017-01-26T10:24:21.235Z,340
2017-01-26T10:25:31.952Z,310
2017-01-26T10:26:42.719Z,360
2017-01-26T10:27:53.447Z,280
2017-01-26T10:29:04.185Z,320
2017-01-26T10:30:14.901Z,300
2017-01-26T10:31:25.624Z,325
2017-01-26T10:32:36.356Z,340
2017-01-26T10:33:47.097Z,325
2017-01-26T10:34:57.833Z,345
2017-01-26T10:36:08.560Z,330
2017-01-26T10:37:19.286Z,345
2017-01-26T10:38:30.658Z,375
2017-01-26T10:39:41.395Z,330
2017-01-26T10:40:52.095Z,355
2017-01-26T10:42:02.796Z,340
2017-01-26T10:43:13.544Z,390
2017-01-26T10:44:24.301Z,430
2017-01-26T10:45:35.024Z,350
2017-01-26T10:46:45.746Z,415
2017-01-26T10:47:56.467Z,575
2017-01-26T10:49:07.196Z,360
2017-01-26T10:50:17.934Z,435
2017-01-26T10:51:28.662Z,540
2017-01-26T10:52:39.381Z,410
2017-01-26T10:53:50.104Z,440
2017-01-26T10:55:00.822Z,455
2017-01-26T10:56:11.561Z,410
2017-01-26T10:57:22.297Z,505
2017-01-26T10:58:33.055Z,460
2017-01-26T10:59:43.781Z,485
2017-01-26T11:00:54.501Z,420
2017-01-26T11:02:05.198Z,515
2017-01-26T11:03:15.919Z,505
2017-01-26T11:04:26.631Z,500
2017-01-26T11:05:37.340Z,425
2017-01-26T11:06:48.059Z,430
2017-01-26T11:07:58.808Z,485
2017-01-26T11:09:09.902Z,595
2017-01-26T11:10:20.623Z,555
2017-01-26T11:11:31.369Z,480
2017-01-26T11:12:42.090Z,435
2017-01-26T11:13:52.813Z,475
2017-01-26T11:15:03.536Z,535
2017-01-26T11:16:14.280Z,585
2017-01-26T11:17:25.005Z,605
2017-01-26T11:18:35.720Z,620
2017-01-26T11:19:46.418Z,590
2017-01-26T11:20:57.151Z,530
2017-01-26T11:22:07.901Z,445
2017-01-26T11:23:18.654Z,435
2017-01-26T11:24:29.378Z,530
2017-01-26T11:25:40.488Z,480
2017-01-26T11:26:51.260Z,420
2017-01-26T11:28:01.983Z,405
2017-01-26T11:29:12.708Z,445
2017-01-26T11:30:23.459Z,535
2017-01-26T11:31:34.190Z,510
2017-01-26T11:32:44.938Z,580
2017-01-26T11:33:55.667Z,610
2017-01-26T11:35:06.411Z,555
2017-01-26T11:36:17.143Z,580
2017-01-26T11:37:28.278Z,535
2017-01-26T11:38:52.498Z,550
2017-01-26T11:40:03.239Z,565
2017-01-26T11:41:13.969Z,625
2017-01-26T11:42:24.707Z,590
2017-01-26T11:43:35.456Z,540
2017-01-26T11:44:46.158Z,540
2017-01-26T11:45:56.878Z,540
2017-01-26T11:47:07.991Z,520
2017-01-26T11:48:18.720Z,535
2017-01-26T11:49:29.464Z,635
2017-01-26T11:50:40.206Z,600
2017-01-26T11:51:50.928Z,535
2017-01-26T11:53:01.653Z,580
2017-01-26T11:54:12.372Z,615
2017-01-26T11:55:23.098Z,585
2017-01-26T11:56:33.831Z,580
2017-01-26T11:57:44.563Z,595
2017-01-26T11:58:55.334Z,590
2017-01-26T12:00:06.079Z,580
2017-01-26T12:01:16.821Z,555
2017-01-26T12:02:27.543Z,560
2017-01-26T12:03:38.659Z,555
2017-01-26T12:04:49.391Z,530
2017-01-26T12:06:00.108Z,535
2017-01-26T12:07:10.838Z,500
2017-01-26T12:08:21.577Z,485
2017-01-26T12:09:32.286Z,485
2017-01-26T12:10:43.019Z,495
2017-01-26T12:11:53.757Z,490
2017-01-26T12:13:04.500Z,470
2017-01-26T12:14:15.233Z,510
2017-01-26T12:15:25.942Z,515
2017-01-26T12:16:36.690Z,475
2017-01-26T12:17:47.669Z,480
2017-01-26T12:18:58.388Z,460
2017-01-26T12:20:09.109Z,475
2017-01-26T12:21:19.851Z,475
2017-01-26T12:22:30.578Z,500
2017-01-26T12:23:41.275Z,475
2017-01-26T12:24:52.021Z,460
2017-01-26T12:26:02.741Z,465
2017-01-26T12:27:13.487Z,445
2017-01-26T12:28:24.221Z,415
2017-01-26T12:29:34.930Z,425
2017-01-26T12:30:45.656Z,435
2017-01-26T12:31:56.393Z,460
2017-01-26T12:33:07.133Z,495
2017-01-26T12:34:18.227Z,495
2017-01-26T12:35:28.958Z,515
2017-01-26T12:36:40.101Z,505
2017-01-26T12:37:50.807Z,500
2017-01-26T12:39:01.547Z,480
2017-01-26T12:40:12.285Z,475
2017-01-26T12:41:23.002Z,475
2017-01-26T12:42:33.724Z,445
2017-01-26T12:43:44.451Z,425
2017-01-26T12:44:55.190Z,405
2017-01-26T12:46:05.930Z,370
2017-01-26T12:47:16.665Z,365
2017-01-26T12:48:27.386Z,375
2017-01-26T12:49:38.112Z,360
2017-01-26T12:50:48.820Z,350
2017-01-26T12:51:59.554Z,345
2017-01-26T12:53:10.664Z,345
2017-01-26T12:54:21.407Z,360
2017-01-26T12:55:32.131Z,360
2017-01-26T12:56:42.849Z,360
2017-01-26T12:57:53.574Z,355
2017-01-26T12:59:04.327Z,350
2017-01-26T13:00:15.057Z,355
2017-01-26T13:01:25.786Z,345
2017-01-26T13:02:36.532Z,325
2017-01-26T13:03:47.261Z,330
2017-01-26T13:04:57.978Z,325
2017-01-26T13:06:09.128Z,320
2017-01-26T13:07:19.837Z,325
2017-01-26T13:08:30.557Z,325
2017-01-26T13:09:41.287Z,310
2017-01-26T13:10:52.013Z,305
2017-01-26T13:12:02.748Z,300
2017-01-26T13:13:13.493Z,295
2017-01-26T13:14:24.221Z,285
2017-01-26T13:15:34.966Z,275
2017-01-26T13:16:45.690Z,280
2017-01-26T13:17:56.387Z,275
2017-01-26T13:19:07.138Z,265
2017-01-26T13:20:17.892Z,270
2017-01-26T13:21:28.628Z,295
2017-01-26T13:22:39.734Z,295
2017-01-26T13:23:50.468Z,265
2017-01-26T13:25:01.201Z,255
2017-01-26T13:26:11.950Z,255
2017-01-26T13:27:23.810Z,245
2017-01-26T13:28:36.474Z,240
2017-01-26T13:29:49.467Z,235
2017-01-26T13:31:02.495Z,230
2017-01-26T13:32:13.989Z,230
2017-01-26T13:33:26.258Z,220
2017-01-26T13:34:39.296Z,215
2017-01-26T13:35:51.947Z,215
2017-01-26T13:37:03.846Z,210
2017-01-26T13:38:16.513Z,205
2017-01-26T13:39:29.526Z,210
2017-01-26T13:40:42.547Z,210
2017-01-26T13:41:55.177Z,210
2017-01-26T13:43:07.842Z,210
2017-01-26T13:44:20.140Z,205
2017-01-26T13:45:33.167Z,205
2017-01-26T13:46:45.808Z,200
2017-01-26T13:47:58.422Z,200
2017-01-26T13:49:11.069Z,195
2017-01-26T13:50:24.122Z,195
2017-01-26T13:51:35.998Z,190
2017-01-26T13:52:48.667Z,190
2017-01-26T13:54:01.704Z,195
2017-01-26T13:55:14.330Z,205
2017-01-26T13:56:27.369Z,205
2017-01-26T13:57:40.396Z,195
2017-01-26T13:58:53.035Z,190
2017-01-26T14:00:06.064Z,185
2017-01-26T14:01:18.703Z,185
2017-01-26T14:02:31.722Z,185
2017-01-26T14:03:44.361Z,185
2017-01-26T14:04:56.647Z,180
2017-01-26T14:06:09.669Z,180
2017-01-26T14:07:22.339Z,175
2017-01-26T14:08:35.377Z,175
2017-01-26T14:09:48.004Z,170
2017-01-26T14:11:01.049Z,175
2017-01-26T14:12:13.296Z,170
2017-01-26T14:13:25.547Z,170
2017-01-26T14:14:38.610Z,165
2017-01-26T14:15:51.636Z,165
2017-01-26T14:17:04.272Z,160
2017-01-26T14:18:16.548Z,165
2017-01-26T14:19:29.192Z,165
2017-01-26T14:20:41.820Z,165
2017-01-26T14:21:54.458Z,160
2017-01-26T14:23:07.483Z,155
2017-01-26T14:24:20.132Z,160
2017-01-26T14:25:33.145Z,155
2017-01-26T14:26:46.151Z,155
2017-01-26T14:27:59.188Z,155
2017-01-26T14:29:11.821Z,155
2017-01-26T14:30:24.116Z,150
2017-01-26T14:31:37.137Z,145
2017-01-26T14:32:49.797Z,145
2017-01-26T14:34:02.827Z,145
2017-01-26T14:35:15.100Z,140
2017-01-26T14:36:27.746Z,145
2017-01-26T14:37:40.781Z,145
2017-01-26T14:38:53.784Z,145
2017-01-26T14:40:06.787Z,145
2017-01-26T14:41:19.080Z,145
2017-01-26T14:42:31.715Z,140
2017-01-26T14:43:44.761Z,150
2017-01-26T14:44:57.810Z,145
2017-01-26T14:46:10.088Z,135
2017-01-26T14:47:22.732Z,125
2017-01-26T14:48:35.762Z,120
2017-01-26T14:49:47.997Z,125
2017-01-26T14:50:59.873Z,120
2017-01-26T14:52:12.908Z,115
2017-01-26T14:53:25.169Z,110
2017-01-26T14:54:38.213Z,105
2017-01-26T14:55:51.274Z,95
2017-01-26T14:57:04.299Z,100
2017-01-26T14:58:16.174Z,95
2017-01-26T14:59:29.213Z,90
2017-01-26T15:00:42.232Z,90
2017-01-26T15:01:54.876Z,80
2017-01-26T15:03:07.507Z,80
2017-01-26T15:04:20.528Z,75
2017-01-26T15:05:33.167Z,75
2017-01-26T15:06:46.227Z,70
2017-01-26T15:07:59.259Z,70
2017-01-26T15:09:12.310Z,65
2017-01-26T15:10:25.378Z,65
2017-01-26T15:11:38.405Z,60
2017-01-26T15:12:51.444Z,55
2017-01-26T15:14:04.475Z,55
2017-01-26T15:15:17.491Z,55
2017-01-26T15:16:30.128Z,50
2017-01-26T15:17:42.778Z,50
2017-01-26T15:18:55.447Z,50
2017-01-26T15:20:08.490Z,45
2017-01-26T15:21:20.400Z,45
2017-01-26T15:22:33.436Z,45
2017-01-26T15:23:46.482Z,40
2017-01-26T15:24:59.136Z,40
2017-01-26T15:26:11.783Z,35
2017-01-26T15:27:24.424Z,35
2017-01-26T15:28:37.497Z,30
2017-01-26T15:29:49.761Z,30
2017-01-26T15:31:02.412Z,30
2017-01-26T15:32:14.700Z,25
2017-01-26T15:33:26.980Z,25
2017-01-26T15:34:40.000Z,20
2017-01-26T15:35:53.024Z,20
2017-01-26T15:37:06.070Z,20
2017-01-26T15:38:19.091Z,15
2017-01-26T15:39:32.132Z,15
2017-01-26T15:40:45.155Z,15
2017-01-26T15:41:58.170Z,15
2017-01-26T15:43:10.796Z,15
2017-01-26T15:44:22.689Z,10
2017-01-26T15:45:35.716Z,10
2017-01-26T15:46:47.962Z,10
2017-01-26T15:48:00.984Z,10
2017-01-26T15:49:13.268Z,10
2017-01-26T15:50:25.897Z,5
2017-01-26T15:51:38.947Z,5
2017-01-26T15:52:52.034Z,5
2017-01-26T15:54:04.665Z,5
2017-01-26T15:55:17.733Z,5
2017-01-26T15:56:30.380Z,0
2017-01-26T15:57:43.423Z,0
2017-01-26T15:58:56.448Z,0
2017-01-26T16:00:09.468Z,0
2017-01-26T16:01:21.732Z,0
2017-01-26T16:02:34.773Z,0
2017-01-26T16:03:47.828Z,0
2017-01-26T16:05:00.816Z,0
2017-01-26T16:06:13.062Z,0
2017-01-26T16:07:24.936Z,0
2017-01-26T16:08:37.587Z,0
2017-01-26T16:09:50.610Z,0
2017-01-26T16:11:03.278Z,0
2017-01-26T16:12:15.567Z,0
2017-01-26T16:13:28.587Z,0
2017-01-26T16:14:41.618Z,0
2017-01-26T16:15:53.865Z,0
2017-01-26T16:17:06.883Z,0
2017-01-26T16:18:19.137Z,0
2017-01-26T16:19:32.172Z,0
2017-01-26T16:20:45.196Z,0
2017-01-26T16:21:57.841Z,0
2017-01-26T16:23:10.480Z,0
2017-01-26T16:24:22.359Z,0
2017-01-26T16:25:35.025Z,0
2017-01-26T16:26:47.668Z,0
2017-01-26T16:28:00.298Z,0
2017-01-26T16:29:12.935Z,0
2017-01-26T16:30:25.259Z,0
2017-01-26T16:31:37.913Z,0
2017-01-26T16:32:50.561Z,0
2017-01-26T16:34:03.581Z,0
2017-01-26T16:35:16.614Z,0
2017-01-26T16:36:29.639Z,0
2017-01-26T16:37:42.310Z,0
2017-01-26T16:38:54.967Z,0
2017-01-26T16:40:08.011Z,0
2017-01-26T16:41:21.031Z,0
2017-01-26T16:42:34.053Z,0
2017-01-26T16:43:46.698Z,0
2017-01-26T16:44:59.744Z,0
2017-01-26T16:46:12.393Z,0
2017-01-26T16:47:25.056Z,0
2017-01-26T16:48:38.057Z,0
2017-01-26T16:49:50.719Z,0
2017-01-26T16:51:03.763Z,0
2017-01-26T16:52:16.384Z,0
2017-01-26T16:53:29.391Z,0
2017-01-26T16:54:42.432Z,0
2017-01-26T16:55:55.470Z,0